sensor_id;sensor_type;location;lat;lon;timestamp;P1;durP1;ratioP1;P2;durP2;ratioP2
15273;SDS011;7738;49.532;11.156;2023-04-25T00:00:38;3.33;;;2.63;;
15273;SDS011;7738;49.532;11.156;2023-04-25T00:03:09;4.00;;;2.92;;
15273;SDS011;7738;49.532;11.156;2023-04-25T00:05:40;3.33;;;3.03;;
15273;SDS011;7738;49.532;11.156;2023-04-25T00:08:14;3.20;;;2.63;;
15273;SDS011;7738;49.532;11.156;2023-04-25T00:10:44;4.13;;;3.08;;
15273;SDS011;7738;49.532;11.156;2023-04-25T00:13:15;5.20;;;3.22;;
15273;SDS011;7738;49.532;11.156;2023-04-25T00:15:47;3.88;;;2.97;;
15273;SDS011;7738;49.532;11.156;2023-04-25T00:18:17;4.10;;;3.65;;
15273;SDS011;7738;49.532;11.156;2023-04-25T00:20:47;4.00;;;3.08;;
15273;SDS011;7738;49.532;11.156;2023-04-25T00:23:21;4.38;;;3.42;;
15273;SDS011;7738;49.532;11.156;2023-04-25T00:25:51;4.10;;;3.47;;
15273;SDS011;7738;49.532;11.156;2023-04-25T00:28:21;6.35;;;3.25;;
15273;SDS011;7738;49.532;11.156;2023-04-25T00:30:51;5.03;;;3.03;;
15273;SDS011;7738;49.532;11.156;2023-04-25T00:33:22;6.40;;;4.00;;
15273;SDS011;7738;49.532;11.156;2023-04-25T00:35:52;4.47;;;3.40;;
15273;SDS011;7738;49.532;11.156;2023-04-25T00:38:25;4.03;;;3.15;;
15273;SDS011;7738;49.532;11.156;2023-04-25T00:40:55;4.57;;;3.47;;
15273;SDS011;7738;49.532;11.156;2023-04-25T00:43:26;3.90;;;3.05;;
15273;SDS011;7738;49.532;11.156;2023-04-25T00:45:56;3.70;;;2.97;;
15273;SDS011;7738;49.532;11.156;2023-04-25T00:48:27;4.68;;;3.40;;
15273;SDS011;7738;49.532;11.156;2023-04-25T00:50:58;5.25;;;3.72;;
15273;SDS011;7738;49.532;11.156;2023-04-25T00:53:31;4.65;;;3.63;;
15273;SDS011;7738;49.532;11.156;2023-04-25T00:56:02;4.47;;;3.00;;
15273;SDS011;7738;49.532;11.156;2023-04-25T00:58:33;4.18;;;3.10;;
15273;SDS011;7738;49.532;11.156;2023-04-25T01:01:03;3.70;;;2.92;;
15273;SDS011;7738;49.532;11.156;2023-04-25T01:03:34;4.78;;;3.50;;
15273;SDS011;7738;49.532;11.156;2023-04-25T01:06:08;3.90;;;3.13;;
15273;SDS011;7738;49.532;11.156;2023-04-25T01:08:42;4.10;;;3.35;;
15273;SDS011;7738;49.532;11.156;2023-04-25T01:11:12;4.53;;;2.90;;
15273;SDS011;7738;49.532;11.156;2023-04-25T01:13:43;4.72;;;3.00;;
15273;SDS011;7738;49.532;11.156;2023-04-25T01:16:14;4.40;;;3.13;;
15273;SDS011;7738;49.532;11.156;2023-04-25T01:18:45;3.90;;;2.60;;
15273;SDS011;7738;49.532;11.156;2023-04-25T01:21:18;4.10;;;3.30;;
15273;SDS011;7738;49.532;11.156;2023-04-25T01:23:48;4.10;;;2.67;;
15273;SDS011;7738;49.532;11.156;2023-04-25T01:26:19;3.85;;;2.70;;
15273;SDS011;7738;49.532;11.156;2023-04-25T01:28:50;3.30;;;2.78;;
15273;SDS011;7738;49.532;11.156;2023-04-25T01:31:21;4.15;;;2.92;;
15273;SDS011;7738;49.532;11.156;2023-04-25T01:33:51;3.35;;;2.72;;
15273;SDS011;7738;49.532;11.156;2023-04-25T01:36:24;4.20;;;2.28;;
15273;SDS011;7738;49.532;11.156;2023-04-25T01:38:55;4.10;;;3.55;;
15273;SDS011;7738;49.532;11.156;2023-04-25T01:41:25;2.92;;;2.47;;
15273;SDS011;7738;49.532;11.156;2023-04-25T01:43:56;4.38;;;2.92;;
15273;SDS011;7738;49.532;11.156;2023-04-25T01:46:27;4.13;;;3.03;;
15273;SDS011;7738;49.532;11.156;2023-04-25T01:48:57;4.15;;;2.92;;
15273;SDS011;7738;49.532;11.156;2023-04-25T01:51:31;4.78;;;2.80;;
15273;SDS011;7738;49.532;11.156;2023-04-25T01:54:01;3.38;;;2.30;;
15273;SDS011;7738;49.532;11.156;2023-04-25T01:56:32;5.20;;;2.45;;
15273;SDS011;7738;49.532;11.156;2023-04-25T01:59:03;4.15;;;2.33;;
15273;SDS011;7738;49.532;11.156;2023-04-25T02:02:10;3.38;;;2.30;;
15273;SDS011;7738;49.532;11.156;2023-04-25T02:04:41;3.72;;;2.88;;
15273;SDS011;7738;49.532;11.156;2023-04-25T02:07:15;3.92;;;2.67;;
15273;SDS011;7738;49.532;11.156;2023-04-25T02:09:51;4.55;;;2.55;;
15273;SDS011;7738;49.532;11.156;2023-04-25T02:12:22;4.28;;;3.47;;
15273;SDS011;7738;49.532;11.156;2023-04-25T02:15:12;3.97;;;2.42;;
15273;SDS011;7738;49.532;11.156;2023-04-25T02:17:49;3.97;;;2.88;;
15273;SDS011;7738;49.532;11.156;2023-04-25T02:20:20;7.95;;;2.45;;
15273;SDS011;7738;49.532;11.156;2023-04-25T02:22:53;2.60;;;2.35;;
15273;SDS011;7738;49.532;11.156;2023-04-25T02:25:24;2.95;;;2.58;;
15273;SDS011;7738;49.532;11.156;2023-04-25T02:27:54;6.85;;;2.65;;
15273;SDS011;7738;49.532;11.156;2023-04-25T02:30:24;4.63;;;2.78;;
15273;SDS011;7738;49.532;11.156;2023-04-25T02:32:55;6.22;;;2.83;;
15273;SDS011;7738;49.532;11.156;2023-04-25T02:35:26;3.17;;;2.08;;
15273;SDS011;7738;49.532;11.156;2023-04-25T02:37:59;3.78;;;3.00;;
15273;SDS011;7738;49.532;11.156;2023-04-25T02:40:29;5.25;;;2.35;;
15273;SDS011;7738;49.532;11.156;2023-04-25T02:43:00;4.30;;;3.10;;
15273;SDS011;7738;49.532;11.156;2023-04-25T02:45:30;3.67;;;3.10;;
15273;SDS011;7738;49.532;11.156;2023-04-25T02:48:02;5.05;;;3.53;;
15273;SDS011;7738;49.532;11.156;2023-04-25T02:50:32;4.78;;;3.05;;
15273;SDS011;7738;49.532;11.156;2023-04-25T02:53:05;4.00;;;3.22;;
15273;SDS011;7738;49.532;11.156;2023-04-25T02:55:43;5.13;;;3.33;;
15273;SDS011;7738;49.532;11.156;2023-04-25T02:58:13;5.63;;;3.28;;
15273;SDS011;7738;49.532;11.156;2023-04-25T03:00:47;4.03;;;3.05;;
15273;SDS011;7738;49.532;11.156;2023-04-25T03:03:17;10.82;;;3.60;;
15273;SDS011;7738;49.532;11.156;2023-04-25T03:05:49;7.07;;;3.17;;
15273;SDS011;7738;49.532;11.156;2023-04-25T03:08:27;4.00;;;2.60;;
15273;SDS011;7738;49.532;11.156;2023-04-25T03:11:00;3.90;;;3.40;;
15273;SDS011;7738;49.532;11.156;2023-04-25T03:13:30;4.13;;;3.13;;
15273;SDS011;7738;49.532;11.156;2023-04-25T03:16:01;4.60;;;3.30;;
15273;SDS011;7738;49.532;11.156;2023-04-25T03:18:31;4.05;;;3.13;;
15273;SDS011;7738;49.532;11.156;2023-04-25T03:21:02;4.50;;;3.38;;
15273;SDS011;7738;49.532;11.156;2023-04-25T03:23:35;4.60;;;3.28;;
15273;SDS011;7738;49.532;11.156;2023-04-25T03:26:06;4.70;;;3.47;;
15273;SDS011;7738;49.532;11.156;2023-04-25T03:28:37;3.80;;;3.15;;
15273;SDS011;7738;49.532;11.156;2023-04-25T03:31:07;4.03;;;3.45;;
15273;SDS011;7738;49.532;11.156;2023-04-25T03:33:38;5.28;;;3.88;;
15273;SDS011;7738;49.532;11.156;2023-04-25T03:36:09;7.90;;;4.70;;
15273;SDS011;7738;49.532;11.156;2023-04-25T03:38:42;7.25;;;5.03;;
15273;SDS011;7738;49.532;11.156;2023-04-25T03:41:14;5.18;;;4.40;;
15273;SDS011;7738;49.532;11.156;2023-04-25T03:43:49;9.60;;;4.82;;
15273;SDS011;7738;49.532;11.156;2023-04-25T03:46:19;8.55;;;5.38;;
15273;SDS011;7738;49.532;11.156;2023-04-25T03:48:50;6.15;;;5.25;;
15273;SDS011;7738;49.532;11.156;2023-04-25T03:51:26;6.05;;;4.72;;
15273;SDS011;7738;49.532;11.156;2023-04-25T03:54:00;9.80;;;5.38;;
15273;SDS011;7738;49.532;11.156;2023-04-25T03:56:30;9.38;;;5.50;;
15273;SDS011;7738;49.532;11.156;2023-04-25T03:59:11;7.28;;;5.40;;
15273;SDS011;7738;49.532;11.156;2023-04-25T04:01:41;9.57;;;6.35;;
15273;SDS011;7738;49.532;11.156;2023-04-25T04:04:12;9.02;;;5.68;;
15273;SDS011;7738;49.532;11.156;2023-04-25T04:06:42;7.60;;;6.07;;
15273;SDS011;7738;49.532;11.156;2023-04-25T04:09:20;6.95;;;5.10;;
15273;SDS011;7738;49.532;11.156;2023-04-25T04:11:51;8.50;;;5.00;;
15273;SDS011;7738;49.532;11.156;2023-04-25T04:14:21;9.60;;;5.50;;
15273;SDS011;7738;49.532;11.156;2023-04-25T04:16:51;11.35;;;6.05;;
15273;SDS011;7738;49.532;11.156;2023-04-25T04:19:22;8.75;;;5.45;;
15273;SDS011;7738;49.532;11.156;2023-04-25T04:22:13;7.70;;;6.13;;
15273;SDS011;7738;49.532;11.156;2023-04-25T04:24:47;8.02;;;5.78;;
15273;SDS011;7738;49.532;11.156;2023-04-25T04:27:32;8.98;;;5.45;;
15273;SDS011;7738;49.532;11.156;2023-04-25T04:30:16;9.10;;;5.35;;
15273;SDS011;7738;49.532;11.156;2023-04-25T04:32:56;7.15;;;5.25;;
15273;SDS011;7738;49.532;11.156;2023-04-25T04:35:28;6.97;;;5.40;;
15273;SDS011;7738;49.532;11.156;2023-04-25T04:37:58;8.73;;;5.75;;
15273;SDS011;7738;49.532;11.156;2023-04-25T04:40:35;7.57;;;5.28;;
15273;SDS011;7738;49.532;11.156;2023-04-25T04:43:37;7.32;;;5.55;;
15273;SDS011;7738;49.532;11.156;2023-04-25T04:46:26;5.35;;;4.80;;
15273;SDS011;7738;49.532;11.156;2023-04-25T04:49:11;8.73;;;5.45;;
15273;SDS011;7738;49.532;11.156;2023-04-25T04:51:54;6.68;;;4.93;;
15273;SDS011;7738;49.532;11.156;2023-04-25T04:54:44;8.15;;;5.88;;
15273;SDS011;7738;49.532;11.156;2023-04-25T04:57:33;8.70;;;5.28;;
15273;SDS011;7738;49.532;11.156;2023-04-25T05:00:34;6.15;;;4.72;;
15273;SDS011;7738;49.532;11.156;2023-04-25T05:03:27;8.05;;;5.90;;
15273;SDS011;7738;49.532;11.156;2023-04-25T05:06:07;7.38;;;5.30;;
15273;SDS011;7738;49.532;11.156;2023-04-25T05:08:51;10.10;;;6.10;;
15273;SDS011;7738;49.532;11.156;2023-04-25T05:11:40;6.93;;;5.63;;
15273;SDS011;7738;49.532;11.156;2023-04-25T05:14:37;9.77;;;4.93;;
15273;SDS011;7738;49.532;11.156;2023-04-25T05:17:28;6.95;;;5.45;;
15273;SDS011;7738;49.532;11.156;2023-04-25T05:20:09;6.40;;;5.15;;
15273;SDS011;7738;49.532;11.156;2023-04-25T05:22:49;8.27;;;5.18;;
15273;SDS011;7738;49.532;11.156;2023-04-25T05:25:48;6.40;;;4.82;;
15273;SDS011;7738;49.532;11.156;2023-04-25T05:28:37;7.47;;;5.20;;
15273;SDS011;7738;49.532;11.156;2023-04-25T05:31:34;7.50;;;5.68;;
15273;SDS011;7738;49.532;11.156;2023-04-25T05:34:11;6.05;;;5.35;;
15273;SDS011;7738;49.532;11.156;2023-04-25T05:36:52;7.72;;;4.65;;
15273;SDS011;7738;49.532;11.156;2023-04-25T05:39:23;6.18;;;4.80;;
15273;SDS011;7738;49.532;11.156;2023-04-25T05:42:12;5.53;;;4.53;;
15273;SDS011;7738;49.532;11.156;2023-04-25T05:45:01;6.97;;;4.15;;
15273;SDS011;7738;49.532;11.156;2023-04-25T05:47:52;7.68;;;4.10;;
15273;SDS011;7738;49.532;11.156;2023-04-25T05:50:42;8.30;;;4.78;;
15273;SDS011;7738;49.532;11.156;2023-04-25T05:53:26;4.82;;;3.70;;
15273;SDS011;7738;49.532;11.156;2023-04-25T05:55:59;4.88;;;3.65;;
15273;SDS011;7738;49.532;11.156;2023-04-25T05:58:30;6.32;;;3.83;;
15273;SDS011;7738;49.532;11.156;2023-04-25T06:01:00;3.63;;;3.05;;
15273;SDS011;7738;49.532;11.156;2023-04-25T06:03:33;6.15;;;4.40;;
15273;SDS011;7738;49.532;11.156;2023-04-25T06:08:35;6.10;;;3.50;;
15273;SDS011;7738;49.532;11.156;2023-04-25T06:11:05;4.20;;;3.55;;
15273;SDS011;7738;49.532;11.156;2023-04-25T06:13:35;5.03;;;3.28;;
15273;SDS011;7738;49.532;11.156;2023-04-25T06:16:06;5.47;;;3.05;;
15273;SDS011;7738;49.532;11.156;2023-04-25T06:18:39;4.35;;;3.58;;
15273;SDS011;7738;49.532;11.156;2023-04-25T06:21:09;7.20;;;3.65;;
15273;SDS011;7738;49.532;11.156;2023-04-25T06:23:40;5.68;;;4.22;;
15273;SDS011;7738;49.532;11.156;2023-04-25T06:26:17;5.43;;;3.53;;
15273;SDS011;7738;49.532;11.156;2023-04-25T06:28:48;4.53;;;3.42;;
15273;SDS011;7738;49.532;11.156;2023-04-25T06:31:18;5.40;;;3.58;;
15273;SDS011;7738;49.532;11.156;2023-04-25T06:33:53;6.43;;;4.35;;
15273;SDS011;7738;49.532;11.156;2023-04-25T06:39:01;4.53;;;3.65;;
15273;SDS011;7738;49.532;11.156;2023-04-25T06:41:32;7.50;;;4.70;;
15273;SDS011;7738;49.532;11.156;2023-04-25T06:44:05;6.20;;;4.93;;
15273;SDS011;7738;49.532;11.156;2023-04-25T06:46:50;5.35;;;4.30;;
15273;SDS011;7738;49.532;11.156;2023-04-25T06:49:23;5.68;;;4.32;;
15273;SDS011;7738;49.532;11.156;2023-04-25T06:51:54;7.10;;;4.72;;
15273;SDS011;7738;49.532;11.156;2023-04-25T06:54:24;7.30;;;5.10;;
15273;SDS011;7738;49.532;11.156;2023-04-25T06:57:03;6.82;;;4.75;;
15273;SDS011;7738;49.532;11.156;2023-04-25T06:59:34;7.25;;;4.85;;
15273;SDS011;7738;49.532;11.156;2023-04-25T07:02:05;6.43;;;4.70;;
15273;SDS011;7738;49.532;11.156;2023-04-25T07:04:38;6.63;;;4.68;;
15273;SDS011;7738;49.532;11.156;2023-04-25T07:07:08;8.23;;;5.40;;
15273;SDS011;7738;49.532;11.156;2023-04-25T07:09:45;6.82;;;5.03;;
15273;SDS011;7738;49.532;11.156;2023-04-25T07:12:16;8.57;;;5.03;;
15273;SDS011;7738;49.532;11.156;2023-04-25T07:14:47;7.97;;;4.78;;
15273;SDS011;7738;49.532;11.156;2023-04-25T07:17:17;7.72;;;5.30;;
15273;SDS011;7738;49.532;11.156;2023-04-25T07:19:50;6.75;;;4.82;;
15273;SDS011;7738;49.532;11.156;2023-04-25T07:22:21;8.05;;;5.40;;
15273;SDS011;7738;49.532;11.156;2023-04-25T07:24:53;7.00;;;4.78;;
15273;SDS011;7738;49.532;11.156;2023-04-25T07:27:25;8.05;;;4.60;;
15273;SDS011;7738;49.532;11.156;2023-04-25T07:30:08;3.67;;;2.58;;
15273;SDS011;7738;49.532;11.156;2023-04-25T07:32:38;3.25;;;2.50;;
15273;SDS011;7738;49.532;11.156;2023-04-25T07:35:11;2.25;;;1.95;;
15273;SDS011;7738;49.532;11.156;2023-04-25T07:37:43;3.50;;;2.38;;
15273;SDS011;7738;49.532;11.156;2023-04-25T07:40:18;5.32;;;2.90;;
15273;SDS011;7738;49.532;11.156;2023-04-25T07:42:52;3.33;;;2.70;;
15273;SDS011;7738;49.532;11.156;2023-04-25T07:45:36;4.25;;;2.20;;
15273;SDS011;7738;49.532;11.156;2023-04-25T07:48:07;3.88;;;2.22;;
15273;SDS011;7738;49.532;11.156;2023-04-25T07:50:41;3.05;;;2.55;;
15273;SDS011;7738;49.532;11.156;2023-04-25T07:53:11;3.65;;;2.85;;
15273;SDS011;7738;49.532;11.156;2023-04-25T07:55:48;5.13;;;2.72;;
15273;SDS011;7738;49.532;11.156;2023-04-25T07:58:20;2.22;;;1.63;;
15273;SDS011;7738;49.532;11.156;2023-04-25T08:00:54;3.38;;;1.98;;
15273;SDS011;7738;49.532;11.156;2023-04-25T08:03:39;3.25;;;2.42;;
15273;SDS011;7738;49.532;11.156;2023-04-25T08:06:22;3.08;;;2.03;;
15273;SDS011;7738;49.532;11.156;2023-04-25T08:09:05;3.35;;;2.13;;
15273;SDS011;7738;49.532;11.156;2023-04-25T08:11:38;3.33;;;2.03;;
15273;SDS011;7738;49.532;11.156;2023-04-25T08:14:11;5.22;;;2.75;;
15273;SDS011;7738;49.532;11.156;2023-04-25T08:16:43;3.70;;;2.15;;
15273;SDS011;7738;49.532;11.156;2023-04-25T08:19:14;5.57;;;2.40;;
15273;SDS011;7738;49.532;11.156;2023-04-25T08:21:48;4.95;;;2.40;;
15273;SDS011;7738;49.532;11.156;2023-04-25T08:24:26;4.70;;;2.75;;
15273;SDS011;7738;49.532;11.156;2023-04-25T08:26:57;4.38;;;2.63;;
15273;SDS011;7738;49.532;11.156;2023-04-25T08:29:31;2.95;;;2.55;;
15273;SDS011;7738;49.532;11.156;2023-04-25T08:32:01;4.03;;;2.05;;
15273;SDS011;7738;49.532;11.156;2023-04-25T08:34:34;5.68;;;2.75;;
15273;SDS011;7738;49.532;11.156;2023-04-25T08:37:08;5.82;;;3.10;;
15273;SDS011;7738;49.532;11.156;2023-04-25T08:39:46;4.07;;;2.53;;
15273;SDS011;7738;49.532;11.156;2023-04-25T08:42:34;4.78;;;3.22;;
15273;SDS011;7738;49.532;11.156;2023-04-25T08:45:06;5.82;;;3.10;;
15273;SDS011;7738;49.532;11.156;2023-04-25T08:47:38;4.75;;;2.60;;
15273;SDS011;7738;49.532;11.156;2023-04-25T08:50:09;6.07;;;2.58;;
15273;SDS011;7738;49.532;11.156;2023-04-25T08:52:43;4.10;;;3.45;;
15273;SDS011;7738;49.532;11.156;2023-04-25T08:55:14;3.47;;;2.70;;
15273;SDS011;7738;49.532;11.156;2023-04-25T08:57:47;5.68;;;2.85;;
15273;SDS011;7738;49.532;11.156;2023-04-25T09:00:18;6.60;;;2.83;;
15273;SDS011;7738;49.532;11.156;2023-04-25T09:02:48;4.57;;;3.22;;
15273;SDS011;7738;49.532;11.156;2023-04-25T09:05:19;5.95;;;2.80;;
15273;SDS011;7738;49.532;11.156;2023-04-25T09:07:54;4.60;;;2.63;;
15273;SDS011;7738;49.532;11.156;2023-04-25T09:10:27;4.85;;;2.95;;
15273;SDS011;7738;49.532;11.156;2023-04-25T09:13:05;4.78;;;3.03;;
15273;SDS011;7738;49.532;11.156;2023-04-25T09:15:54;5.70;;;3.03;;
15273;SDS011;7738;49.532;11.156;2023-04-25T09:18:54;4.88;;;3.30;;
15273;SDS011;7738;49.532;11.156;2023-04-25T09:21:24;3.78;;;2.75;;
15273;SDS011;7738;49.532;11.156;2023-04-25T09:24:00;3.63;;;3.17;;
15273;SDS011;7738;49.532;11.156;2023-04-25T09:26:32;7.28;;;3.50;;
15273;SDS011;7738;49.532;11.156;2023-04-25T09:29:04;6.57;;;3.90;;
15273;SDS011;7738;49.532;11.156;2023-04-25T09:31:39;7.32;;;3.97;;
15273;SDS011;7738;49.532;11.156;2023-04-25T09:34:10;3.78;;;3.20;;
15273;SDS011;7738;49.532;11.156;2023-04-25T09:36:48;3.90;;;3.28;;
15273;SDS011;7738;49.532;11.156;2023-04-25T09:39:39;6.72;;;3.05;;
15273;SDS011;7738;49.532;11.156;2023-04-25T09:42:13;4.53;;;2.92;;
15273;SDS011;7738;49.532;11.156;2023-04-25T09:44:45;4.07;;;2.45;;
15273;SDS011;7738;49.532;11.156;2023-04-25T09:47:16;3.13;;;2.42;;
15273;SDS011;7738;49.532;11.156;2023-04-25T09:49:48;3.50;;;2.40;;
15273;SDS011;7738;49.532;11.156;2023-04-25T09:52:20;3.55;;;2.25;;
15273;SDS011;7738;49.532;11.156;2023-04-25T09:55:13;3.85;;;1.80;;
15273;SDS011;7738;49.532;11.156;2023-04-25T09:57:44;2.00;;;1.45;;
15273;SDS011;7738;49.532;11.156;2023-04-25T10:00:18;3.38;;;2.35;;
15273;SDS011;7738;49.532;11.156;2023-04-25T10:02:49;4.63;;;2.53;;
15273;SDS011;7738;49.532;11.156;2023-04-25T10:05:40;2.30;;;2.10;;
15273;SDS011;7738;49.532;11.156;2023-04-25T10:08:12;3.08;;;2.78;;
15273;SDS011;7738;49.532;11.156;2023-04-25T10:10:46;3.00;;;2.13;;
15273;SDS011;7738;49.532;11.156;2023-04-25T10:13:17;5.55;;;2.30;;
15273;SDS011;7738;49.532;11.156;2023-04-25T10:15:48;2.95;;;1.98;;
15273;SDS011;7738;49.532;11.156;2023-04-25T10:18:18;3.33;;;1.58;;
15273;SDS011;7738;49.532;11.156;2023-04-25T10:20:49;5.03;;;1.80;;
15273;SDS011;7738;49.532;11.156;2023-04-25T10:23:19;2.38;;;1.40;;
15273;SDS011;7738;49.532;11.156;2023-04-25T10:25:53;2.90;;;0.77;;
15273;SDS011;7738;49.532;11.156;2023-04-25T10:28:24;2.47;;;1.15;;
15273;SDS011;7738;49.532;11.156;2023-04-25T10:30:58;2.42;;;1.20;;
15273;SDS011;7738;49.532;11.156;2023-04-25T10:33:30;2.13;;;1.23;;
15273;SDS011;7738;49.532;11.156;2023-04-25T10:36:09;1.75;;;0.80;;
15273;SDS011;7738;49.532;11.156;2023-04-25T10:38:40;1.95;;;0.95;;
15273;SDS011;7738;49.532;11.156;2023-04-25T10:41:14;1.00;;;0.60;;
15273;SDS011;7738;49.532;11.156;2023-04-25T10:43:48;1.42;;;0.65;;
15273;SDS011;7738;49.532;11.156;2023-04-25T10:46:19;1.20;;;0.57;;
15273;SDS011;7738;49.532;11.156;2023-04-25T10:48:52;1.67;;;0.57;;
15273;SDS011;7738;49.532;11.156;2023-04-25T10:51:24;1.85;;;0.70;;
15273;SDS011;7738;49.532;11.156;2023-04-25T10:54:06;3.28;;;0.60;;
15273;SDS011;7738;49.532;11.156;2023-04-25T10:56:41;4.25;;;0.80;;
15273;SDS011;7738;49.532;11.156;2023-04-25T10:59:12;4.43;;;1.10;;
15273;SDS011;7738;49.532;11.156;2023-04-25T11:01:43;1.92;;;0.95;;
15273;SDS011;7738;49.532;11.156;2023-04-25T11:04:19;1.27;;;0.90;;
15273;SDS011;7738;49.532;11.156;2023-04-25T11:06:55;3.15;;;1.42;;
15273;SDS011;7738;49.532;11.156;2023-04-25T11:09:34;5.32;;;2.10;;
15273;SDS011;7738;49.532;11.156;2023-04-25T11:12:08;2.47;;;1.83;;
15273;SDS011;7738;49.532;11.156;2023-04-25T11:14:39;2.20;;;1.42;;
15273;SDS011;7738;49.532;11.156;2023-04-25T11:17:09;2.92;;;1.42;;
15273;SDS011;7738;49.532;11.156;2023-04-25T11:19:40;2.13;;;1.10;;
15273;SDS011;7738;49.532;11.156;2023-04-25T11:22:10;1.42;;;0.80;;
15273;SDS011;7738;49.532;11.156;2023-04-25T11:24:40;1.95;;;1.08;;
15273;SDS011;7738;49.532;11.156;2023-04-25T11:27:14;1.85;;;1.00;;
15273;SDS011;7738;49.532;11.156;2023-04-25T11:29:44;1.55;;;1.00;;
15273;SDS011;7738;49.532;11.156;2023-04-25T11:32:15;1.35;;;0.70;;
15273;SDS011;7738;49.532;11.156;2023-04-25T11:34:47;2.70;;;0.85;;
15273;SDS011;7738;49.532;11.156;2023-04-25T11:37:17;3.33;;;0.70;;
15273;SDS011;7738;49.532;11.156;2023-04-25T11:39:47;1.77;;;1.00;;
15273;SDS011;7738;49.532;11.156;2023-04-25T11:42:20;1.75;;;0.73;;
15273;SDS011;7738;49.532;11.156;2023-04-25T11:44:51;2.20;;;0.82;;
15273;SDS011;7738;49.532;11.156;2023-04-25T11:47:26;6.63;;;0.98;;
15273;SDS011;7738;49.532;11.156;2023-04-25T11:49:58;1.77;;;0.75;;
15273;SDS011;7738;49.532;11.156;2023-04-25T11:52:38;1.65;;;0.60;;
15273;SDS011;7738;49.532;11.156;2023-04-25T11:55:10;1.83;;;0.80;;
15273;SDS011;7738;49.532;11.156;2023-04-25T11:57:47;1.57;;;0.63;;
15273;SDS011;7738;49.532;11.156;2023-04-25T12:00:19;1.05;;;0.52;;
15273;SDS011;7738;49.532;11.156;2023-04-25T12:02:51;1.58;;;0.60;;
15273;SDS011;7738;49.532;11.156;2023-04-25T12:05:23;1.75;;;0.60;;
15273;SDS011;7738;49.532;11.156;2023-04-25T12:08:11;0.70;;;0.50;;
15273;SDS011;7738;49.532;11.156;2023-04-25T12:10:43;0.60;;;0.32;;
15273;SDS011;7738;49.532;11.156;2023-04-25T12:13:21;2.63;;;0.45;;
15273;SDS011;7738;49.532;11.156;2023-04-25T12:15:53;1.55;;;0.57;;
15273;SDS011;7738;49.532;11.156;2023-04-25T12:18:24;2.10;;;0.38;;
15273;SDS011;7738;49.532;11.156;2023-04-25T12:20:55;3.13;;;0.77;;
15273;SDS011;7738;49.532;11.156;2023-04-25T12:23:26;0.73;;;0.30;;
15273;SDS011;7738;49.532;11.156;2023-04-25T12:25:57;1.10;;;0.65;;
15273;SDS011;7738;49.532;11.156;2023-04-25T12:28:32;1.17;;;0.50;;
15273;SDS011;7738;49.532;11.156;2023-04-25T12:31:02;4.95;;;0.47;;
15273;SDS011;7738;49.532;11.156;2023-04-25T12:33:34;0.93;;;0.40;;
15273;SDS011;7738;49.532;11.156;2023-04-25T12:36:06;0.95;;;0.75;;
15273;SDS011;7738;49.532;11.156;2023-04-25T12:38:40;2.10;;;0.47;;
15273;SDS011;7738;49.532;11.156;2023-04-25T12:41:10;1.42;;;0.50;;
15273;SDS011;7738;49.532;11.156;2023-04-25T12:43:43;1.95;;;0.77;;
15273;SDS011;7738;49.532;11.156;2023-04-25T12:46:13;4.43;;;0.68;;
15273;SDS011;7738;49.532;11.156;2023-04-25T12:48:43;1.70;;;0.70;;
15273;SDS011;7738;49.532;11.156;2023-04-25T12:51:14;1.73;;;0.63;;
15273;SDS011;7738;49.532;11.156;2023-04-25T12:53:44;1.33;;;0.80;;
15273;SDS011;7738;49.532;11.156;2023-04-25T12:56:14;1.02;;;0.55;;
15273;SDS011;7738;49.532;11.156;2023-04-25T12:58:50;2.63;;;0.77;;
15273;SDS011;7738;49.532;11.156;2023-04-25T13:01:20;1.35;;;0.75;;
15273;SDS011;7738;49.532;11.156;2023-04-25T13:03:51;1.25;;;0.77;;
15273;SDS011;7738;49.532;11.156;2023-04-25T13:06:22;1.13;;;1.02;;
15273;SDS011;7738;49.532;11.156;2023-04-25T13:08:52;1.17;;;0.73;;
15273;SDS011;7738;49.532;11.156;2023-04-25T13:11:23;1.45;;;0.75;;
15273;SDS011;7738;49.532;11.156;2023-04-25T13:13:56;2.03;;;0.80;;
15273;SDS011;7738;49.532;11.156;2023-04-25T13:16:26;0.97;;;0.73;;
15273;SDS011;7738;49.532;11.156;2023-04-25T13:18:57;0.90;;;0.70;;
15273;SDS011;7738;49.532;11.156;2023-04-25T13:21:29;1.25;;;0.52;;
15273;SDS011;7738;49.532;11.156;2023-04-25T13:24:00;1.55;;;0.73;;
15273;SDS011;7738;49.532;11.156;2023-04-25T13:26:31;1.38;;;0.75;;
15273;SDS011;7738;49.532;11.156;2023-04-25T13:29:05;1.92;;;0.80;;
15273;SDS011;7738;49.532;11.156;2023-04-25T13:31:35;1.58;;;0.80;;
15273;SDS011;7738;49.532;11.156;2023-04-25T13:34:06;1.08;;;0.77;;
15273;SDS011;7738;49.532;11.156;2023-04-25T13:36:36;2.10;;;1.52;;
15273;SDS011;7738;49.532;11.156;2023-04-25T13:39:07;2.53;;;0.77;;
15273;SDS011;7738;49.532;11.156;2023-04-25T13:41:38;3.72;;;1.33;;
15273;SDS011;7738;49.532;11.156;2023-04-25T13:44:10;1.83;;;1.10;;
15273;SDS011;7738;49.532;11.156;2023-04-25T13:46:41;2.40;;;1.08;;
15273;SDS011;7738;49.532;11.156;2023-04-25T13:49:13;3.47;;;1.50;;
15273;SDS011;7738;49.532;11.156;2023-04-25T13:51:44;2.88;;;1.25;;
15273;SDS011;7738;49.532;11.156;2023-04-25T13:54:14;2.20;;;1.17;;
15273;SDS011;7738;49.532;11.156;2023-04-25T13:56:45;3.33;;;1.05;;
15273;SDS011;7738;49.532;11.156;2023-04-25T13:59:18;1.38;;;1.00;;
15273;SDS011;7738;49.532;11.156;2023-04-25T14:01:48;2.63;;;0.77;;
15273;SDS011;7738;49.532;11.156;2023-04-25T14:04:19;2.70;;;0.73;;
15273;SDS011;7738;49.532;11.156;2023-04-25T14:06:49;1.48;;;1.10;;
15273;SDS011;7738;49.532;11.156;2023-04-25T14:09:20;2.22;;;1.70;;
15273;SDS011;7738;49.532;11.156;2023-04-25T14:11:52;3.17;;;1.23;;
15273;SDS011;7738;49.532;11.156;2023-04-25T14:14:25;2.50;;;1.00;;
15273;SDS011;7738;49.532;11.156;2023-04-25T14:16:56;2.85;;;0.82;;
15273;SDS011;7738;49.532;11.156;2023-04-25T14:19:26;1.17;;;0.95;;
15273;SDS011;7738;49.532;11.156;2023-04-25T14:21:57;2.80;;;1.33;;
15273;SDS011;7738;49.532;11.156;2023-04-25T14:24:27;2.80;;;1.27;;
15273;SDS011;7738;49.532;11.156;2023-04-25T14:26:57;1.45;;;0.98;;
15273;SDS011;7738;49.532;11.156;2023-04-25T14:29:30;1.98;;;0.93;;
15273;SDS011;7738;49.532;11.156;2023-04-25T14:32:01;1.65;;;1.27;;
15273;SDS011;7738;49.532;11.156;2023-04-25T14:34:32;3.55;;;1.85;;
15273;SDS011;7738;49.532;11.156;2023-04-25T14:37:02;3.53;;;1.23;;
15273;SDS011;7738;49.532;11.156;2023-04-25T14:39:32;4.47;;;2.00;;
15273;SDS011;7738;49.532;11.156;2023-04-25T14:42:03;2.25;;;1.25;;
15273;SDS011;7738;49.532;11.156;2023-04-25T14:44:36;2.50;;;1.10;;
15273;SDS011;7738;49.532;11.156;2023-04-25T14:47:07;1.92;;;1.52;;
15273;SDS011;7738;49.532;11.156;2023-04-25T14:49:37;2.45;;;1.40;;
15273;SDS011;7738;49.532;11.156;2023-04-25T14:52:07;2.20;;;1.23;;
15273;SDS011;7738;49.532;11.156;2023-04-25T14:54:38;2.58;;;1.10;;
15273;SDS011;7738;49.532;11.156;2023-04-25T14:57:08;2.83;;;1.60;;
15273;SDS011;7738;49.532;11.156;2023-04-25T14:59:41;2.55;;;1.33;;
15273;SDS011;7738;49.532;11.156;2023-04-25T15:02:12;3.03;;;1.33;;
15273;SDS011;7738;49.532;11.156;2023-04-25T15:04:42;2.25;;;1.38;;
15273;SDS011;7738;49.532;11.156;2023-04-25T15:07:13;1.40;;;1.20;;
15273;SDS011;7738;49.532;11.156;2023-04-25T15:09:44;2.30;;;1.23;;
15273;SDS011;7738;49.532;11.156;2023-04-25T15:12:14;4.65;;;1.58;;
15273;SDS011;7738;49.532;11.156;2023-04-25T15:14:47;2.17;;;1.50;;
15273;SDS011;7738;49.532;11.156;2023-04-25T15:17:18;3.28;;;1.23;;
15273;SDS011;7738;49.532;11.156;2023-04-25T15:19:48;5.15;;;1.88;;
15273;SDS011;7738;49.532;11.156;2023-04-25T15:22:19;2.80;;;1.05;;
15273;SDS011;7738;49.532;11.156;2023-04-25T15:24:49;2.03;;;1.50;;
15273;SDS011;7738;49.532;11.156;2023-04-25T15:27:19;2.08;;;1.35;;
15273;SDS011;7738;49.532;11.156;2023-04-25T15:29:52;3.35;;;1.05;;
15273;SDS011;7738;49.532;11.156;2023-04-25T15:32:23;3.85;;;1.30;;